Santa Isabel — 3FJM6 — position and weather

sailwx.info

Track history (hours):
 
Tides and Currents Weather Stations Pressure Air Temp Water Temp Dewpoint Dewpoint Depression Visibility Wind Speed Wind Dir Waves Ship Positions

Santa Isabel

Last reported at 2017-Dec-03 22:02 UTC. Time now 2017-Dec-17 04:27 UTC.
Position N 31°53' E 034°31'.
Warning: this ship's position is 13 days out of date.

Length 85 m; draft 5.8 m.

Type: Cargo ship. MMSI: 355876000.

Date/timePositionNaut miles runAvg speedWind from/ knotsBaromVisibWave heightAir tempDewpointWater temp
2017-Dec-03 22:02N 31°53' E 034°31'1 8.7
2017-Dec-03 21:52N 31°54' E 034°29'3 8.8
2017-Dec-03 21:30N 31°55' E 034°26'4 9.0
2017-Dec-03 21:00N 31°57' E 034°21'4 8.8
2017-Dec-03 20:30N 31°59' E 034°16'4 8.5
2017-Dec-03 20:00N 32°01' E 034°12'4 8.8
2017-Dec-03 19:30N 32°06' E 034°12'5 9.2
2017-Dec-03 19:00N 32°10' E 034°12'5 9.2
2017-Dec-03 18:30N 32°15' E 034°14'5 9.1
2017-Dec-03 18:00N 32°19' E 034°15'4 8.8
2017-Dec-03 17:30N 32°23' E 034°17'4 8.9
2017-Dec-03 17:00N 32°28' E 034°18'5 9.1
2017-Dec-03 16:30N 32°32' E 034°20'5 9.3
2017-Dec-03 16:00N 32°36' E 034°21'5 9.2
2017-Dec-03 15:30N 32°41' E 034°23'5 9.4
2017-Dec-03 15:00N 32°45' E 034°24'5 9.2
2017-Dec-03 14:30N 32°50' E 034°26'5 9.0
2017-Dec-03 14:00N 32°54' E 034°27'5 9.1
2017-Dec-03 13:30N 32°59' E 034°29'  
Track history (hours):
 
Tides and Currents Weather Stations Pressure Air Temp Water Temp Dewpoint Dewpoint Depression Visibility Wind Speed Wind Dir Waves Ship Positions

Santa Isabel

Last reported at 2017-Dec-03 22:02 UTC. Time now 2017-Dec-17 04:27 UTC.
Position N 31°53' E 034°31'.
Warning: this ship's position is 13 days out of date.

Length 85 m; draft 5.8 m.

Type: Cargo ship. MMSI: 355876000.

Date/timePositionNaut miles runAvg speedWind from/ knotsBaromVisibWave heightAir tempDewpointWater temp
2017-Dec-03 22:02N 31°53' E 034°31'1 8.7
2017-Dec-03 21:52N 31°54' E 034°29'3 8.8
2017-Dec-03 21:30N 31°55' E 034°26'4 9.0
2017-Dec-03 21:00N 31°57' E 034°21'4 8.8
2017-Dec-03 20:30N 31°59' E 034°16'4 8.5
2017-Dec-03 20:00N 32°01' E 034°12'4 8.8
2017-Dec-03 19:30N 32°06' E 034°12'5 9.2
2017-Dec-03 19:00N 32°10' E 034°12'5 9.2
2017-Dec-03 18:30N 32°15' E 034°14'5 9.1
2017-Dec-03 18:00N 32°19' E 034°15'4 8.8
2017-Dec-03 17:30N 32°23' E 034°17'4 8.9
2017-Dec-03 17:00N 32°28' E 034°18'5 9.1
2017-Dec-03 16:30N 32°32' E 034°20'5 9.3
2017-Dec-03 16:00N 32°36' E 034°21'5 9.2
2017-Dec-03 15:30N 32°41' E 034°23'5 9.4
2017-Dec-03 15:00N 32°45' E 034°24'5 9.2
2017-Dec-03 14:30N 32°50' E 034°26'5 9.0
2017-Dec-03 14:00N 32°54' E 034°27'5 9.1
2017-Dec-03 13:30N 32°59' E 034°29'  

Dump ship's entire track history